createdAt,value
2023-03-23T15:57:53.799Z,58.90
2023-03-23T16:00:22.162Z,61.70
2023-03-23T16:02:57.973Z,60.70
2023-03-23T16:05:26.022Z,60.10
2023-03-23T16:07:53.879Z,59.70
2023-03-23T16:10:23.830Z,61.30
2023-03-23T16:12:52.444Z,60.00
2023-03-23T16:15:21.223Z,60.60
2023-03-23T16:17:48.825Z,61.60
2023-03-23T16:20:22.513Z,61.80
2023-03-23T16:22:52.086Z,61.90
2023-03-23T16:25:20.318Z,63.20
2023-03-23T16:27:52.490Z,62.10
2023-03-23T16:30:26.365Z,64.80
2023-03-23T16:32:56.897Z,64.60
2023-03-23T16:35:26.006Z,66.70
2023-03-23T16:38:08.458Z,65.20
2023-03-23T16:40:37.990Z,66.90
2023-03-23T16:43:08.340Z,67.30
2023-03-23T16:45:41.607Z,67.50
2023-03-23T16:48:12.555Z,67.80
2023-03-23T16:50:41.597Z,67.80
2023-03-23T16:53:09.995Z,68.00
2023-03-23T16:55:38.678Z,68.40
2023-03-23T16:58:16.330Z,69.20
2023-03-23T17:00:49.015Z,68.50
2023-03-23T17:03:18.722Z,68.90
2023-03-23T17:05:51.461Z,69.30
2023-03-23T17:08:21.166Z,69.70
2023-03-23T17:10:49.150Z,69.70
2023-03-23T17:13:17.602Z,69.30
2023-03-23T17:15:47.110Z,70.00
2023-03-23T17:18:16.688Z,69.60
2023-03-23T17:20:44.668Z,69.50
2023-03-23T17:23:12.687Z,69.80
2023-03-23T17:25:40.728Z,69.90
2023-03-23T17:28:08.761Z,71.90
2023-03-23T17:30:39.474Z,71.10
2023-03-23T17:33:07.753Z,71.40
2023-03-23T17:35:35.813Z,71.60
2023-03-23T17:38:03.745Z,72.50
2023-03-23T17:40:32.922Z,72.00
2023-03-23T17:43:01.332Z,72.70
2023-03-23T17:45:29.257Z,73.10
2023-03-23T17:47:57.549Z,73.40
2023-03-23T17:50:26.824Z,73.60
2023-03-23T17:52:57.266Z,74.10
2023-03-23T17:55:25.590Z,74.60
2023-03-23T17:57:53.712Z,73.60
2023-03-23T18:00:22.683Z,74.60
2023-03-23T18:02:52.125Z,73.70
2023-03-23T18:05:20.231Z,74.00
2023-03-23T18:07:48.746Z,73.50
2023-03-23T18:10:17.061Z,74.00
2023-03-23T18:12:45.637Z,73.40
2023-03-23T18:15:13.863Z,74.10
2023-03-23T18:17:44.217Z,74.20
2023-03-23T18:20:13.657Z,74.10
2023-03-23T18:22:42.350Z,73.40
2023-03-23T18:25:12.034Z,73.70
2023-03-23T18:27:40.781Z,75.10
2023-03-23T18:30:10.040Z,74.00
2023-03-23T18:32:40.357Z,74.80
2023-03-23T18:35:14.635Z,74.50
2023-03-23T18:37:44.386Z,74.80
2023-03-23T18:40:12.889Z,75.10
2023-03-23T18:42:45.473Z,74.50
2023-03-23T18:45:14.313Z,74.70
2023-03-23T18:47:44.208Z,75.20
2023-03-23T18:50:13.158Z,75.20
2023-03-23T18:52:42.756Z,76.00
2023-03-23T18:55:13.078Z,75.70
2023-03-23T18:57:44.452Z,76.90
2023-03-23T19:00:14.107Z,76.20
2023-03-23T19:02:43.240Z,77.00
2023-03-23T19:05:12.976Z,75.60
2023-03-23T19:07:53.860Z,76.80
2023-03-23T19:10:23.555Z,76.20
2023-03-23T19:12:51.713Z,75.80
2023-03-23T19:15:21.412Z,76.50
2023-03-23T19:17:56.620Z,75.80
2023-03-23T19:21:00.428Z,77.40
2023-03-23T19:23:15.877Z,78.20
2023-03-23T19:25:46.627Z,77.30
2023-03-23T19:30:55.478Z,76.20
2023-03-23T19:33:31.366Z,76.50
2023-03-23T19:38:34.554Z,77.50
2023-03-23T19:41:06.559Z,79.30
2023-03-23T19:43:36.450Z,78.60
2023-03-23T19:46:06.951Z,79.60
2023-03-23T19:48:36.214Z,79.70
2023-03-23T19:51:07.419Z,78.90
2023-03-23T19:53:37.330Z,77.70
2023-03-23T19:56:11.455Z,78.40
2023-03-23T19:58:40.687Z,78.40
2023-03-23T20:01:10.470Z,78.70
2023-03-23T20:03:39.368Z,78.90
2023-03-23T20:06:13.013Z,79.50
2023-03-23T20:08:43.742Z,78.80
2023-03-23T20:11:15.318Z,78.90
2023-03-23T20:13:44.859Z,78.80
2023-03-23T20:16:13.809Z,80.00
2023-03-23T20:18:44.745Z,78.80
2023-03-23T20:21:19.728Z,80.40
2023-03-23T20:23:49.857Z,78.90
2023-03-23T20:26:27.300Z,79.60
2023-03-23T20:28:56.169Z,79.20
2023-03-23T20:31:28.528Z,80.20
2023-03-23T20:34:03.192Z,78.40
2023-03-23T20:36:43.053Z,80.30
2023-03-23T20:39:21.689Z,79.70
2023-03-23T20:41:51.513Z,80.30
2023-03-23T20:44:23.716Z,77.70
2023-03-23T20:46:56.146Z,80.30
2023-03-23T20:49:27.162Z,81.00
2023-03-23T20:51:55.854Z,80.50
2023-03-23T20:54:25.738Z,79.60
2023-03-23T20:56:56.297Z,81.60
2023-03-23T20:59:27.728Z,81.00
2023-03-23T21:01:57.014Z,82.30
2023-03-23T21:04:28.341Z,82.50
2023-03-23T21:06:59.255Z,81.10
2023-03-23T21:09:27.983Z,80.60
2023-03-23T21:11:57.343Z,81.30
2023-03-23T21:14:27.373Z,81.60
2023-03-23T21:16:58.197Z,82.20
2023-03-23T21:19:30.502Z,80.10
2023-03-23T21:22:00.399Z,81.10
2023-03-23T21:24:31.628Z,81.70
2023-03-23T21:27:02.905Z,82.20
2023-03-23T21:29:31.158Z,81.20
2023-03-23T21:34:30.647Z,81.40
2023-03-23T21:36:58.546Z,81.10
2023-03-23T21:39:26.513Z,81.20
2023-03-23T21:41:54.252Z,81.50
2023-03-23T21:44:22.222Z,82.10
2023-03-23T21:46:52.386Z,83.30
2023-03-23T21:49:20.507Z,81.50
2023-03-23T21:51:49.594Z,81.50
2023-03-23T21:54:17.368Z,84.40
2023-03-23T21:56:45.075Z,84.00
2023-03-23T21:59:12.936Z,81.00
2023-03-23T22:01:40.679Z,81.20
2023-03-23T22:04:08.796Z,83.00
2023-03-23T22:06:36.518Z,83.50
2023-03-23T22:09:07.614Z,83.70
2023-03-23T22:11:36.386Z,83.70
2023-03-23T22:14:05.395Z,83.60
2023-03-23T22:16:33.783Z,83.90
2023-03-23T22:19:02.295Z,83.70
2023-03-23T22:21:30.406Z,84.70
2023-03-23T22:24:00.403Z,84.90
2023-03-23T22:26:29.214Z,85.20
2023-03-23T22:28:57.732Z,84.40
2023-03-23T22:31:28.760Z,84.80
2023-03-23T22:33:57.418Z,85.30
2023-03-23T22:36:26.842Z,86.30
2023-03-23T22:38:55.713Z,85.70
2023-03-23T22:41:30.260Z,85.50
2023-03-23T22:43:58.036Z,84.10
2023-03-23T22:46:25.782Z,82.20
2023-03-23T22:48:53.919Z,85.30
2023-03-23T22:51:22.519Z,83.70
2023-03-23T22:53:50.488Z,83.30
2023-03-23T22:56:18.761Z,83.60
2023-03-23T22:58:46.470Z,83.20
2023-03-23T23:01:17.509Z,83.50
2023-03-23T23:03:45.597Z,83.80
2023-03-23T23:06:14.580Z,84.40
2023-03-23T23:08:42.923Z,85.10
2023-03-23T23:11:13.357Z,84.40
2023-03-23T23:13:41.798Z,86.10
2023-03-23T23:16:11.325Z,85.20
2023-03-23T23:18:40.746Z,85.40
2023-03-23T23:21:12.946Z,85.40
2023-03-23T23:23:41.303Z,87.90
2023-03-23T23:26:09.680Z,86.10
2023-03-23T23:28:37.372Z,85.40
2023-03-23T23:31:06.485Z,85.60
2023-03-23T23:33:34.140Z,85.70
2023-03-23T23:36:02.915Z,85.80
2023-03-23T23:38:30.579Z,87.40
2023-03-23T23:40:58.522Z,86.30
2023-03-23T23:43:26.212Z,85.80
2023-03-23T23:45:54.131Z,85.80
2023-03-23T23:48:22.867Z,87.70
2023-03-23T23:50:51.686Z,86.60
2023-03-23T23:53:23.175Z,85.80
2023-03-23T23:55:51.000Z,86.70
2023-03-23T23:58:19.720Z,87.40
